sensor_id;sensor_type;location;lat;lon;timestamp;temperature;humidity
12370;DHT22;6249;52.128;9.986;2022-09-21T00:00:21;9.10;99.90
12370;DHT22;6249;52.128;9.986;2022-09-21T00:03:44;9.00;99.90
12370;DHT22;6249;52.128;9.986;2022-09-21T00:07:10;8.80;99.90
12370;DHT22;6249;52.128;9.986;2022-09-21T00:10:31;8.80;99.90
12370;DHT22;6249;52.128;9.986;2022-09-21T00:13:57;8.70;99.90
12370;DHT22;6249;52.128;9.986;2022-09-21T00:17:19;8.70;99.90
12370;DHT22;6249;52.128;9.986;2022-09-21T00:20:42;8.60;99.90
12370;DHT22;6249;52.128;9.986;2022-09-21T00:24:06;8.50;99.90
12370;DHT22;6249;52.128;9.986;2022-09-21T00:27:27;8.40;99.90
12370;DHT22;6249;52.128;9.986;2022-09-21T00:30:50;8.40;99.90
12370;DHT22;6249;52.128;9.986;2022-09-21T00:34:13;8.30;99.90
12370;DHT22;6249;52.128;9.986;2022-09-21T00:37:34;8.30;99.90
12370;DHT22;6249;52.128;9.986;2022-09-21T00:40:55;8.30;99.90
12370;DHT22;6249;52.128;9.986;2022-09-21T00:44:19;8.40;99.90
12370;DHT22;6249;52.128;9.986;2022-09-21T00:47:44;8.20;99.90
12370;DHT22;6249;52.128;9.986;2022-09-21T00:51:06;8.20;99.90
12370;DHT22;6249;52.128;9.986;2022-09-21T00:54:34;8.10;99.90
12370;DHT22;6249;52.128;9.986;2022-09-21T00:58:00;8.10;99.90
12370;DHT22;6249;52.128;9.986;2022-09-21T01:01:22;8.10;99.90
12370;DHT22;6249;52.128;9.986;2022-09-21T01:04:47;8.00;99.90
12370;DHT22;6249;52.128;9.986;2022-09-21T01:08:09;8.10;99.90
12370;DHT22;6249;52.128;9.986;2022-09-21T01:23:07;8.10;99.90
12370;DHT22;6249;52.128;9.986;2022-09-21T01:30:19;8.20;99.90
12370;DHT22;6249;52.128;9.986;2022-09-21T01:33:47;8.20;99.90
12370;DHT22;6249;52.128;9.986;2022-09-21T01:37:16;8.20;99.90
12370;DHT22;6249;52.128;9.986;2022-09-21T01:40:46;8.20;99.90
12370;DHT22;6249;52.128;9.986;2022-09-21T01:44:17;8.20;99.90
12370;DHT22;6249;52.128;9.986;2022-09-21T01:47:40;8.10;99.90
12370;DHT22;6249;52.128;9.986;2022-09-21T01:51:07;8.10;99.90
12370;DHT22;6249;52.128;9.986;2022-09-21T01:54:38;8.00;99.90
12370;DHT22;6249;52.128;9.986;2022-09-21T01:58:08;7.90;99.90
12370;DHT22;6249;52.128;9.986;2022-09-21T02:01:40;7.70;99.90
12370;DHT22;6249;52.128;9.986;2022-09-21T02:05:04;7.70;99.90
12370;DHT22;6249;52.128;9.986;2022-09-21T02:08:26;7.70;99.90
12370;DHT22;6249;52.128;9.986;2022-09-21T02:11:49;7.60;99.90
12370;DHT22;6249;52.128;9.986;2022-09-21T02:15:14;7.60;99.90
12370;DHT22;6249;52.128;9.986;2022-09-21T02:26:01;7.70;99.90
12370;DHT22;6249;52.128;9.986;2022-09-21T02:33:20;7.60;99.90
12370;DHT22;6249;52.128;9.986;2022-09-21T02:36:47;7.60;99.90
12370;DHT22;6249;52.128;9.986;2022-09-21T02:43:38;7.70;99.90
12370;DHT22;6249;52.128;9.986;2022-09-21T02:47:17;7.70;99.90
12370;DHT22;6249;52.128;9.986;2022-09-21T02:50:58;7.60;99.90
12370;DHT22;6249;52.128;9.986;2022-09-21T02:54:25;7.50;99.90
12370;DHT22;6249;52.128;9.986;2022-09-21T02:57:49;7.50;99.90
12370;DHT22;6249;52.128;9.986;2022-09-21T03:01:12;7.30;99.90
12370;DHT22;6249;52.128;9.986;2022-09-21T03:04:34;7.30;99.90
12370;DHT22;6249;52.128;9.986;2022-09-21T03:07:54;7.40;99.90
12370;DHT22;6249;52.128;9.986;2022-09-21T03:11:16;7.40;99.90
12370;DHT22;6249;52.128;9.986;2022-09-21T03:14:39;7.30;99.90
12370;DHT22;6249;52.128;9.986;2022-09-21T03:18:05;7.40;99.90
12370;DHT22;6249;52.128;9.986;2022-09-21T03:21:26;7.40;99.90
12370;DHT22;6249;52.128;9.986;2022-09-21T03:24:46;7.40;99.90
12370;DHT22;6249;52.128;9.986;2022-09-21T03:28:07;7.50;99.90
12370;DHT22;6249;52.128;9.986;2022-09-21T03:31:29;7.50;99.90
12370;DHT22;6249;52.128;9.986;2022-09-21T03:34:50;7.50;99.90
12370;DHT22;6249;52.128;9.986;2022-09-21T03:38:11;7.50;99.90
12370;DHT22;6249;52.128;9.986;2022-09-21T03:41:32;7.40;99.90
12370;DHT22;6249;52.128;9.986;2022-09-21T03:44:53;7.30;99.90
12370;DHT22;6249;52.128;9.986;2022-09-21T03:48:13;7.20;99.90
12370;DHT22;6249;52.128;9.986;2022-09-21T03:51:34;7.10;99.90
12370;DHT22;6249;52.128;9.986;2022-09-21T03:54:55;7.00;99.90
12370;DHT22;6249;52.128;9.986;2022-09-21T03:58:19;7.00;99.90
12370;DHT22;6249;52.128;9.986;2022-09-21T04:01:40;7.00;99.90
12370;DHT22;6249;52.128;9.986;2022-09-21T04:05:01;6.90;99.90
12370;DHT22;6249;52.128;9.986;2022-09-21T04:08:21;6.80;99.90
12370;DHT22;6249;52.128;9.986;2022-09-21T04:11:44;6.80;99.90
12370;DHT22;6249;52.128;9.986;2022-09-21T04:15:05;6.70;99.90
12370;DHT22;6249;52.128;9.986;2022-09-21T04:18:26;6.70;99.90
12370;DHT22;6249;52.128;9.986;2022-09-21T04:21:51;6.60;99.90
12370;DHT22;6249;52.128;9.986;2022-09-21T04:25:13;6.60;99.90
12370;DHT22;6249;52.128;9.986;2022-09-21T04:28:34;6.50;99.90
12370;DHT22;6249;52.128;9.986;2022-09-21T04:31:54;6.60;99.90
12370;DHT22;6249;52.128;9.986;2022-09-21T04:35:15;6.50;99.90
12370;DHT22;6249;52.128;9.986;2022-09-21T04:38:38;6.50;99.90
12370;DHT22;6249;52.128;9.986;2022-09-21T04:42:01;6.50;99.90
12370;DHT22;6249;52.128;9.986;2022-09-21T04:45:24;6.50;99.90
12370;DHT22;6249;52.128;9.986;2022-09-21T04:48:48;6.40;99.90
12370;DHT22;6249;52.128;9.986;2022-09-21T04:52:11;6.60;99.90
12370;DHT22;6249;52.128;9.986;2022-09-21T04:55:32;6.40;99.90
12370;DHT22;6249;52.128;9.986;2022-09-21T04:58:55;6.40;99.90
12370;DHT22;6249;52.128;9.986;2022-09-21T05:02:15;6.40;99.90
12370;DHT22;6249;52.128;9.986;2022-09-21T05:05:36;6.40;99.90
12370;DHT22;6249;52.128;9.986;2022-09-21T05:08:59;6.40;99.90
12370;DHT22;6249;52.128;9.986;2022-09-21T05:12:38;6.40;99.90
12370;DHT22;6249;52.128;9.986;2022-09-21T05:15:59;6.40;99.90
12370;DHT22;6249;52.128;9.986;2022-09-21T05:19:22;6.50;99.90
12370;DHT22;6249;52.128;9.986;2022-09-21T05:22:47;6.40;99.90
12370;DHT22;6249;52.128;9.986;2022-09-21T05:26:10;6.30;99.90
12370;DHT22;6249;52.128;9.986;2022-09-21T05:29:31;6.30;99.90
12370;DHT22;6249;52.128;9.986;2022-09-21T05:32:58;6.30;99.90
12370;DHT22;6249;52.128;9.986;2022-09-21T05:39:47;6.30;99.90
12370;DHT22;6249;52.128;9.986;2022-09-21T05:43:12;6.30;99.90
12370;DHT22;6249;52.128;9.986;2022-09-21T05:50:32;6.30;99.90
12370;DHT22;6249;52.128;9.986;2022-09-21T05:54:05;6.30;99.90
12370;DHT22;6249;52.128;9.986;2022-09-21T05:57:36;6.30;99.90
12370;DHT22;6249;52.128;9.986;2022-09-21T06:01:33;6.40;99.90
12370;DHT22;6249;52.128;9.986;2022-09-21T06:04:56;6.60;99.90
12370;DHT22;6249;52.128;9.986;2022-09-21T06:08:19;6.60;99.90
12370;DHT22;6249;52.128;9.986;2022-09-21T06:11:39;6.70;99.90
12370;DHT22;6249;52.128;9.986;2022-09-21T06:15:00;6.60;99.90
12370;DHT22;6249;52.128;9.986;2022-09-21T06:18:21;6.70;99.90
12370;DHT22;6249;52.128;9.986;2022-09-21T06:21:44;6.70;99.90
12370;DHT22;6249;52.128;9.986;2022-09-21T06:25:05;6.70;99.90
12370;DHT22;6249;52.128;9.986;2022-09-21T06:28:26;6.80;99.90
12370;DHT22;6249;52.128;9.986;2022-09-21T06:31:47;6.80;99.90
12370;DHT22;6249;52.128;9.986;2022-09-21T06:35:08;6.90;99.90
12370;DHT22;6249;52.128;9.986;2022-09-21T06:38:31;7.00;99.90
12370;DHT22;6249;52.128;9.986;2022-09-21T06:41:52;7.00;99.90
12370;DHT22;6249;52.128;9.986;2022-09-21T06:45:17;7.10;99.90
12370;DHT22;6249;52.128;9.986;2022-09-21T06:48:37;7.20;99.90
12370;DHT22;6249;52.128;9.986;2022-09-21T06:52:00;7.30;99.90
12370;DHT22;6249;52.128;9.986;2022-09-21T06:55:23;7.40;99.90
12370;DHT22;6249;52.128;9.986;2022-09-21T06:58:44;7.60;99.90
12370;DHT22;6249;52.128;9.986;2022-09-21T07:02:10;7.70;99.90
12370;DHT22;6249;52.128;9.986;2022-09-21T07:05:32;7.90;99.90
12370;DHT22;6249;52.128;9.986;2022-09-21T07:08:53;8.00;99.90
12370;DHT22;6249;52.128;9.986;2022-09-21T07:12:14;8.20;99.90
12370;DHT22;6249;52.128;9.986;2022-09-21T07:15:35;8.30;99.90
12370;DHT22;6249;52.128;9.986;2022-09-21T07:18:56;8.50;99.90
12370;DHT22;6249;52.128;9.986;2022-09-21T07:22:16;8.70;99.90
12370;DHT22;6249;52.128;9.986;2022-09-21T07:25:37;8.80;99.90
12370;DHT22;6249;52.128;9.986;2022-09-21T07:29:00;8.90;99.90
12370;DHT22;6249;52.128;9.986;2022-09-21T07:32:23;9.20;99.90
12370;DHT22;6249;52.128;9.986;2022-09-21T07:35:52;9.30;99.90
12370;DHT22;6249;52.128;9.986;2022-09-21T07:39:13;9.60;99.90
12370;DHT22;6249;52.128;9.986;2022-09-21T07:42:36;9.80;99.90
12370;DHT22;6249;52.128;9.986;2022-09-21T07:45:56;10.00;99.90
12370;DHT22;6249;52.128;9.986;2022-09-21T07:49:17;10.20;99.90
12370;DHT22;6249;52.128;9.986;2022-09-21T07:52:38;10.40;99.90
12370;DHT22;6249;52.128;9.986;2022-09-21T07:56:04;10.60;99.90
12370;DHT22;6249;52.128;9.986;2022-09-21T07:59:25;10.90;99.90
12370;DHT22;6249;52.128;9.986;2022-09-21T08:02:46;11.00;99.90
12370;DHT22;6249;52.128;9.986;2022-09-21T08:06:07;11.30;99.90
12370;DHT22;6249;52.128;9.986;2022-09-21T08:09:28;11.60;99.90
12370;DHT22;6249;52.128;9.986;2022-09-21T08:12:51;11.90;99.90
12370;DHT22;6249;52.128;9.986;2022-09-21T08:16:12;12.20;99.90
12370;DHT22;6249;52.128;9.986;2022-09-21T08:19:34;12.50;99.90
12370;DHT22;6249;52.128;9.986;2022-09-21T08:22:57;12.70;99.90
12370;DHT22;6249;52.128;9.986;2022-09-21T08:26:21;13.00;99.90
12370;DHT22;6249;52.128;9.986;2022-09-21T08:29:43;13.30;99.90
12370;DHT22;6249;52.128;9.986;2022-09-21T08:33:06;13.40;99.90
12370;DHT22;6249;52.128;9.986;2022-09-21T08:36:30;13.70;99.90
12370;DHT22;6249;52.128;9.986;2022-09-21T08:39:53;14.10;99.90
12370;DHT22;6249;52.128;9.986;2022-09-21T08:43:34;14.50;99.90
12370;DHT22;6249;52.128;9.986;2022-09-21T08:47:14;14.70;99.90
12370;DHT22;6249;52.128;9.986;2022-09-21T08:50:43;14.80;99.90
12370;DHT22;6249;52.128;9.986;2022-09-21T08:54:11;15.10;99.90
12370;DHT22;6249;52.128;9.986;2022-09-21T08:57:34;15.50;99.90
12370;DHT22;6249;52.128;9.986;2022-09-21T09:05:32;16.30;99.90
12370;DHT22;6249;52.128;9.986;2022-09-21T09:19:41;17.10;99.90
12370;DHT22;6249;52.128;9.986;2022-09-21T09:30:21;17.70;99.90
12370;DHT22;6249;52.128;9.986;2022-09-21T09:37:29;18.50;99.90
12370;DHT22;6249;52.128;9.986;2022-09-21T09:41:19;18.60;99.20
12370;DHT22;6249;52.128;9.986;2022-09-21T09:45:15;18.70;99.90
12370;DHT22;6249;52.128;9.986;2022-09-21T09:52:35;19.50;98.40
12370;DHT22;6249;52.128;9.986;2022-09-21T09:55:59;19.90;99.80
12370;DHT22;6249;52.128;9.986;2022-09-21T09:59:34;20.40;98.90
12370;DHT22;6249;52.128;9.986;2022-09-21T10:02:57;20.70;96.60
12370;DHT22;6249;52.128;9.986;2022-09-21T10:06:30;20.80;96.00
12370;DHT22;6249;52.128;9.986;2022-09-21T10:09:51;21.30;96.50
12370;DHT22;6249;52.128;9.986;2022-09-21T10:13:26;21.00;94.60
12370;DHT22;6249;52.128;9.986;2022-09-21T10:16:49;20.50;96.40
12370;DHT22;6249;52.128;9.986;2022-09-21T10:20:18;20.00;95.80
12370;DHT22;6249;52.128;9.986;2022-09-21T10:24:06;19.20;98.30
12370;DHT22;6249;52.128;9.986;2022-09-21T10:27:27;19.50;99.20
12370;DHT22;6249;52.128;9.986;2022-09-21T10:30:48;19.60;99.80
12370;DHT22;6249;52.128;9.986;2022-09-21T10:34:13;19.30;98.80
12370;DHT22;6249;52.128;9.986;2022-09-21T10:37:39;19.20;99.80
12370;DHT22;6249;52.128;9.986;2022-09-21T10:41:03;20.00;99.10
12370;DHT22;6249;52.128;9.986;2022-09-21T10:44:37;20.30;98.10
12370;DHT22;6249;52.128;9.986;2022-09-21T10:48:13;20.50;97.80
12370;DHT22;6249;52.128;9.986;2022-09-21T10:51:39;20.20;98.00
12370;DHT22;6249;52.128;9.986;2022-09-21T10:55:05;20.00;97.80
12370;DHT22;6249;52.128;9.986;2022-09-21T10:58:28;19.60;98.50
12370;DHT22;6249;52.128;9.986;2022-09-21T11:01:51;19.30;97.70
12370;DHT22;6249;52.128;9.986;2022-09-21T11:05:16;19.00;98.20
12370;DHT22;6249;52.128;9.986;2022-09-21T11:08:44;19.50;98.20
12370;DHT22;6249;52.128;9.986;2022-09-21T11:19:40;20.20;94.60
12370;DHT22;6249;52.128;9.986;2022-09-21T11:26:41;20.50;94.20
12370;DHT22;6249;52.128;9.986;2022-09-21T11:30:09;20.30;95.30
12370;DHT22;6249;52.128;9.986;2022-09-21T11:44:39;23.50;91.00
12370;DHT22;6249;52.128;9.986;2022-09-21T11:48:26;24.80;87.30
12370;DHT22;6249;52.128;9.986;2022-09-21T11:52:38;25.70;83.10
12370;DHT22;6249;52.128;9.986;2022-09-21T12:03:43;25.20;82.30
12370;DHT22;6249;52.128;9.986;2022-09-21T12:15:25;26.90;70.10
12370;DHT22;6249;52.128;9.986;2022-09-21T12:19:02;27.60;71.40
12370;DHT22;6249;52.128;9.986;2022-09-21T12:22:31;28.90;63.30
12370;DHT22;6249;52.128;9.986;2022-09-21T12:25:59;27.80;62.00
12370;DHT22;6249;52.128;9.986;2022-09-21T12:29:30;26.10;69.30
12370;DHT22;6249;52.128;9.986;2022-09-21T12:32:54;27.00;66.70
12370;DHT22;6249;52.128;9.986;2022-09-21T12:36:23;28.10;66.00
12370;DHT22;6249;52.128;9.986;2022-09-21T12:40:17;28.50;58.30
12370;DHT22;6249;52.128;9.986;2022-09-21T12:54:43;25.70;67.60
12370;DHT22;6249;52.128;9.986;2022-09-21T13:02:09;23.90;71.40
12370;DHT22;6249;52.128;9.986;2022-09-21T13:09:00;23.30;77.00
12370;DHT22;6249;52.128;9.986;2022-09-21T13:12:40;23.10;81.00
12370;DHT22;6249;52.128;9.986;2022-09-21T13:16:06;22.90;76.30
12370;DHT22;6249;52.128;9.986;2022-09-21T13:23:22;22.90;80.20
12370;DHT22;6249;52.128;9.986;2022-09-21T13:26:53;22.90;79.00
12370;DHT22;6249;52.128;9.986;2022-09-21T13:30:28;23.00;78.20
12370;DHT22;6249;52.128;9.986;2022-09-21T13:37:40;23.50;75.70
12370;DHT22;6249;52.128;9.986;2022-09-21T13:41:19;23.60;71.90
12370;DHT22;6249;52.128;9.986;2022-09-21T13:44:43;23.60;71.40
12370;DHT22;6249;52.128;9.986;2022-09-21T13:48:21;23.00;77.10
12370;DHT22;6249;52.128;9.986;2022-09-21T13:52:02;22.70;73.20
12370;DHT22;6249;52.128;9.986;2022-09-21T13:55:34;23.10;75.70
12370;DHT22;6249;52.128;9.986;2022-09-21T13:59:00;23.10;73.30
12370;DHT22;6249;52.128;9.986;2022-09-21T14:02:37;22.60;74.50
12370;DHT22;6249;52.128;9.986;2022-09-21T14:09:52;21.60;80.90
12370;DHT22;6249;52.128;9.986;2022-09-21T14:16:50;20.80;78.80
12370;DHT22;6249;52.128;9.986;2022-09-21T14:20:31;20.60;77.60
12370;DHT22;6249;52.128;9.986;2022-09-21T14:24:20;20.70;81.80
12370;DHT22;6249;52.128;9.986;2022-09-21T14:27:43;20.60;82.30
12370;DHT22;6249;52.128;9.986;2022-09-21T14:31:26;20.30;77.00
12370;DHT22;6249;52.128;9.986;2022-09-21T14:34:52;20.30;87.50
12370;DHT22;6249;52.128;9.986;2022-09-21T14:41:41;20.50;84.20
12370;DHT22;6249;52.128;9.986;2022-09-21T14:45:03;20.60;82.90
12370;DHT22;6249;52.128;9.986;2022-09-21T14:48:45;20.70;84.00
12370;DHT22;6249;52.128;9.986;2022-09-21T15:04:01;22.20;76.00
12370;DHT22;6249;52.128;9.986;2022-09-21T15:07:33;23.70;69.60
12370;DHT22;6249;52.128;9.986;2022-09-21T15:11:36;25.80;67.30
12370;DHT22;6249;52.128;9.986;2022-09-21T15:15:12;27.70;61.40
12370;DHT22;6249;52.128;9.986;2022-09-21T15:18:40;29.30;54.30
12370;DHT22;6249;52.128;9.986;2022-09-21T15:22:15;28.80;52.50
12370;DHT22;6249;52.128;9.986;2022-09-21T15:25:36;29.00;54.60
12370;DHT22;6249;52.128;9.986;2022-09-21T15:28:59;28.80;50.90
12370;DHT22;6249;52.128;9.986;2022-09-21T15:32:31;28.50;51.50
12370;DHT22;6249;52.128;9.986;2022-09-21T15:35:53;28.30;53.40
12370;DHT22;6249;52.128;9.986;2022-09-21T15:43:19;28.50;49.00
12370;DHT22;6249;52.128;9.986;2022-09-21T15:46:42;28.80;50.90
12370;DHT22;6249;52.128;9.986;2022-09-21T15:50:03;29.60;51.40
12370;DHT22;6249;52.128;9.986;2022-09-21T15:53:28;29.00;49.90
12370;DHT22;6249;52.128;9.986;2022-09-21T15:56:51;29.10;50.50
12370;DHT22;6249;52.128;9.986;2022-09-21T16:03:36;28.80;49.60
12370;DHT22;6249;52.128;9.986;2022-09-21T16:13:58;27.80;48.70
12370;DHT22;6249;52.128;9.986;2022-09-21T16:17:38;27.50;50.20
12370;DHT22;6249;52.128;9.986;2022-09-21T16:21:16;27.00;49.10
12370;DHT22;6249;52.128;9.986;2022-09-21T16:24:51;26.40;53.90
12370;DHT22;6249;52.128;9.986;2022-09-21T16:31:38;26.00;52.90
12370;DHT22;6249;52.128;9.986;2022-09-21T16:35:28;25.80;54.20
12370;DHT22;6249;52.128;9.986;2022-09-21T16:38:53;25.50;54.40
12370;DHT22;6249;52.128;9.986;2022-09-21T16:42:14;25.30;55.70
12370;DHT22;6249;52.128;9.986;2022-09-21T16:45:40;24.70;57.00
12370;DHT22;6249;52.128;9.986;2022-09-21T16:49:01;24.10;64.00
12370;DHT22;6249;52.128;9.986;2022-09-21T16:52:22;23.10;65.80
12370;DHT22;6249;52.128;9.986;2022-09-21T16:55:45;22.00;72.00
12370;DHT22;6249;52.128;9.986;2022-09-21T16:59:17;21.10;75.30
12370;DHT22;6249;52.128;9.986;2022-09-21T17:02:41;20.50;76.30
12370;DHT22;6249;52.128;9.986;2022-09-21T17:06:15;20.00;86.00
12370;DHT22;6249;52.128;9.986;2022-09-21T17:09:40;19.70;86.30
12370;DHT22;6249;52.128;9.986;2022-09-21T17:13:03;19.30;88.20
12370;DHT22;6249;52.128;9.986;2022-09-21T17:16:26;18.90;92.80
12370;DHT22;6249;52.128;9.986;2022-09-21T17:19:50;18.80;93.30
12370;DHT22;6249;52.128;9.986;2022-09-21T17:23:11;18.70;93.30
12370;DHT22;6249;52.128;9.986;2022-09-21T17:26:32;18.40;95.20
12370;DHT22;6249;52.128;9.986;2022-09-21T17:29:55;18.10;96.10
12370;DHT22;6249;52.128;9.986;2022-09-21T17:33:18;17.70;97.50
12370;DHT22;6249;52.128;9.986;2022-09-21T17:36:40;17.30;98.10
12370;DHT22;6249;52.128;9.986;2022-09-21T17:40:04;16.90;99.30
12370;DHT22;6249;52.128;9.986;2022-09-21T17:47:18;16.50;99.90
12370;DHT22;6249;52.128;9.986;2022-09-21T17:50:39;16.00;99.90
12370;DHT22;6249;52.128;9.986;2022-09-21T17:54:00;15.60;99.90
12370;DHT22;6249;52.128;9.986;2022-09-21T18:04:25;15.20;99.90
12370;DHT22;6249;52.128;9.986;2022-09-21T18:07:47;15.20;99.90
12370;DHT22;6249;52.128;9.986;2022-09-21T18:25:46;14.60;99.90
12370;DHT22;6249;52.128;9.986;2022-09-21T18:29:24;14.40;99.90
12370;DHT22;6249;52.128;9.986;2022-09-21T18:36:34;14.20;99.90
12370;DHT22;6249;52.128;9.986;2022-09-21T18:40:30;14.10;99.90
12370;DHT22;6249;52.128;9.986;2022-09-21T18:44:10;13.60;99.90
12370;DHT22;6249;52.128;9.986;2022-09-21T18:51:20;13.40;99.90
12370;DHT22;6249;52.128;9.986;2022-09-21T18:54:37;13.20;99.90
12370;DHT22;6249;52.128;9.986;2022-09-21T18:58:00;13.10;99.90
12370;DHT22;6249;52.128;9.986;2022-09-21T19:01:21;13.00;99.90
12370;DHT22;6249;52.128;9.986;2022-09-21T19:04:43;13.00;99.90
12370;DHT22;6249;52.128;9.986;2022-09-21T19:08:13;12.90;99.90
12370;DHT22;6249;52.128;9.986;2022-09-21T19:15:41;12.60;99.90
12370;DHT22;6249;52.128;9.986;2022-09-21T19:27:00;12.50;99.90
12370;DHT22;6249;52.128;9.986;2022-09-21T19:30:22;12.50;99.90
12370;DHT22;6249;52.128;9.986;2022-09-21T19:33:46;12.40;99.90
12370;DHT22;6249;52.128;9.986;2022-09-21T19:37:09;12.30;99.90
12370;DHT22;6249;52.128;9.986;2022-09-21T19:40:33;12.10;99.90
12370;DHT22;6249;52.128;9.986;2022-09-21T19:44:11;12.00;99.90
12370;DHT22;6249;52.128;9.986;2022-09-21T19:47:52;11.90;99.90
12370;DHT22;6249;52.128;9.986;2022-09-21T19:51:28;11.80;99.90
12370;DHT22;6249;52.128;9.986;2022-09-21T19:54:50;11.70;99.90
12370;DHT22;6249;52.128;9.986;2022-09-21T19:58:30;11.60;99.90
12370;DHT22;6249;52.128;9.986;2022-09-21T20:02:23;11.50;99.90
12370;DHT22;6249;52.128;9.986;2022-09-21T20:05:58;11.50;99.90
12370;DHT22;6249;52.128;9.986;2022-09-21T20:09:25;11.30;99.90
12370;DHT22;6249;52.128;9.986;2022-09-21T20:20:05;11.10;99.90
12370;DHT22;6249;52.128;9.986;2022-09-21T20:23:31;11.00;99.90
12370;DHT22;6249;52.128;9.986;2022-09-21T20:26:55;10.90;99.90
12370;DHT22;6249;52.128;9.986;2022-09-21T20:30:25;10.90;99.90
12370;DHT22;6249;52.128;9.986;2022-09-21T20:33:46;10.80;99.90
12370;DHT22;6249;52.128;9.986;2022-09-21T20:37:12;10.80;99.90
12370;DHT22;6249;52.128;9.986;2022-09-21T20:40:33;10.70;99.90
12370;DHT22;6249;52.128;9.986;2022-09-21T20:43:54;10.60;99.90
12370;DHT22;6249;52.128;9.986;2022-09-21T20:47:18;10.70;99.90
12370;DHT22;6249;52.128;9.986;2022-09-21T20:50:44;10.60;99.90
12370;DHT22;6249;52.128;9.986;2022-09-21T20:54:07;10.50;99.90
12370;DHT22;6249;52.128;9.986;2022-09-21T20:57:28;10.40;99.90
12370;DHT22;6249;52.128;9.986;2022-09-21T21:00:51;10.40;99.90
12370;DHT22;6249;52.128;9.986;2022-09-21T21:04:15;10.30;99.90
12370;DHT22;6249;52.128;9.986;2022-09-21T21:07:36;10.30;99.90
12370;DHT22;6249;52.128;9.986;2022-09-21T21:10:58;10.20;99.90
12370;DHT22;6249;52.128;9.986;2022-09-21T21:14:20;10.10;99.90
12370;DHT22;6249;52.128;9.986;2022-09-21T21:17:45;9.90;99.90
12370;DHT22;6249;52.128;9.986;2022-09-21T21:21:06;10.00;99.90
12370;DHT22;6249;52.128;9.986;2022-09-21T21:24:27;10.00;99.90
12370;DHT22;6249;52.128;9.986;2022-09-21T21:28:00;9.90;99.90
12370;DHT22;6249;52.128;9.986;2022-09-21T21:31:21;9.90;99.90
12370;DHT22;6249;52.128;9.986;2022-09-21T21:34:42;9.80;99.90
12370;DHT22;6249;52.128;9.986;2022-09-21T21:38:03;9.70;99.90
12370;DHT22;6249;52.128;9.986;2022-09-21T21:41:26;9.70;99.90
12370;DHT22;6249;52.128;9.986;2022-09-21T21:44:50;9.60;99.90
12370;DHT22;6249;52.128;9.986;2022-09-21T21:48:13;9.70;99.90
12370;DHT22;6249;52.128;9.986;2022-09-21T21:51:33;9.60;99.90
12370;DHT22;6249;52.128;9.986;2022-09-21T21:54:54;9.60;99.90
12370;DHT22;6249;52.128;9.986;2022-09-21T21:58:14;9.50;99.90
12370;DHT22;6249;52.128;9.986;2022-09-21T22:01:38;9.40;99.90
12370;DHT22;6249;52.128;9.986;2022-09-21T22:05:01;9.30;99.90
12370;DHT22;6249;52.128;9.986;2022-09-21T22:08:21;9.30;99.90
12370;DHT22;6249;52.128;9.986;2022-09-21T22:11:44;9.30;99.90
12370;DHT22;6249;52.128;9.986;2022-09-21T22:15:08;9.30;99.90
12370;DHT22;6249;52.128;9.986;2022-09-21T22:18:29;9.30;99.90
12370;DHT22;6249;52.128;9.986;2022-09-21T22:21:54;9.30;99.90
12370;DHT22;6249;52.128;9.986;2022-09-21T22:25:17;9.20;99.90
12370;DHT22;6249;52.128;9.986;2022-09-21T22:28:42;9.10;99.90
12370;DHT22;6249;52.128;9.986;2022-09-21T22:32:05;9.00;99.90
12370;DHT22;6249;52.128;9.986;2022-09-21T22:35:26;9.00;99.90
12370;DHT22;6249;52.128;9.986;2022-09-21T22:38:47;8.90;99.90
12370;DHT22;6249;52.128;9.986;2022-09-21T22:42:11;8.80;99.90
12370;DHT22;6249;52.128;9.986;2022-09-21T22:45:32;8.80;99.90
12370;DHT22;6249;52.128;9.986;2022-09-21T22:48:52;8.70;99.90
12370;DHT22;6249;52.128;9.986;2022-09-21T22:52:13;8.60;99.90
12370;DHT22;6249;52.128;9.986;2022-09-21T22:55:34;8.60;99.90
12370;DHT22;6249;52.128;9.986;2022-09-21T22:58:56;8.50;99.90
12370;DHT22;6249;52.128;9.986;2022-09-21T23:02:17;8.40;99.90
12370;DHT22;6249;52.128;9.986;2022-09-21T23:05:38;8.40;99.90
12370;DHT22;6249;52.128;9.986;2022-09-21T23:09:00;8.40;99.90
12370;DHT22;6249;52.128;9.986;2022-09-21T23:12:21;8.40;99.90
12370;DHT22;6249;52.128;9.986;2022-09-21T23:15:42;8.30;99.90
12370;DHT22;6249;52.128;9.986;2022-09-21T23:19:03;8.30;99.90
12370;DHT22;6249;52.128;9.986;2022-09-21T23:22:23;8.30;99.90
12370;DHT22;6249;52.128;9.986;2022-09-21T23:25:46;8.30;99.90
12370;DHT22;6249;52.128;9.986;2022-09-21T23:29:13;8.30;99.90
12370;DHT22;6249;52.128;9.986;2022-09-21T23:32:36;8.20;99.90
12370;DHT22;6249;52.128;9.986;2022-09-21T23:35:57;8.20;99.90
12370;DHT22;6249;52.128;9.986;2022-09-21T23:39:19;8.10;99.90
12370;DHT22;6249;52.128;9.986;2022-09-21T23:42:40;8.10;99.90
12370;DHT22;6249;52.128;9.986;2022-09-21T23:46:01;8.10;99.90
12370;DHT22;6249;52.128;9.986;2022-09-21T23:49:25;8.00;99.90
12370;DHT22;6249;52.128;9.986;2022-09-21T23:52:48;7.90;99.90
12370;DHT22;6249;52.128;9.986;2022-09-21T23:56:12;7.90;99.90
12370;DHT22;6249;52.128;9.986;2022-09-21T23:59:33;7.90;99.90
